Time;durP1;ratioP1;P1;durP2;ratioP2;P2;SDS_P1;SDS_P2;PMS_P1;PMS_P2;Temp;Humidity;BMP_temperature;BMP_pressure;BME280_temperature;BME280_humidity;BME280_pressure;Samples;Min_cycle;Max_cycle;Signal;HPM_P1;HPM_P2
2023/05/12 00:04:52;;;;;;;3.80;3.30;;;10.90;99.90;;;;;;453484;262;28246;-84
2023/05/12 00:06:53;;;;;;;12.60;3.47;;;10.90;99.90;;;;;;453230;258;28247;-83
2023/05/12 00:11:05;;;;;;;4.70;3.60;;;10.90;99.90;;;;;;444874;258;28352;-81
2023/05/12 00:19:54;;;;;;;3.77;3.43;;;10.90;99.90;;;;;;457999;248;28812;-84
2023/05/12 00:21:55;;;;;;;3.77;3.47;;;10.90;99.90;;;;;;458557;256;28795;-82
2023/05/12 00:35:45;;;;;;;3.67;3.37;;;10.90;99.90;;;;;;471864;252;28035;-84
2023/05/12 00:42:43;;;;;;;3.60;3.30;;;10.90;99.90;;;;;;487949;236;28183;-81
2023/05/12 00:44:46;;;;;;;3.80;3.50;;;;;;;;;;486569;236;28224;-83
2023/05/12 00:48:57;;;;;;;3.90;3.60;;;10.80;99.90;;;;;;484265;235;28364;-79
2023/05/12 00:50:58;;;;;;;4.17;3.77;;;10.90;99.90;;;;;;486561;236;28295;-82
2023/05/12 00:55:10;;;;;;;4.80;3.60;;;10.80;99.90;;;;;;483187;236;28045;-84
2023/05/12 01:03:56;;;;;;;3.47;3.17;;;10.80;99.90;;;;;;486079;245;28035;-81
2023/05/12 01:05:57;;;;;;;3.93;3.53;;;10.90;99.90;;;;;;486416;240;28277;-82
2023/05/12 01:10:09;;;;;;;4.17;3.33;;;10.90;99.90;;;;;;471058;242;28418;-80
2023/05/12 01:16:36;;;;;;;4.17;3.77;;;10.80;99.90;;;;;;483960;240;28496;-83
2023/05/12 01:18:38;;;;;;;4.90;3.73;;;10.80;99.90;;;;;;479644;242;28176;-82
2023/05/12 01:22:55;;;;;;;4.67;3.87;;;10.80;99.90;;;;;;487651;236;28249;-85
2023/05/12 01:33:58;;;;;;;4.17;3.80;;;10.80;99.90;;;;;;468202;249;28756;-82
2023/05/12 01:45:19;;;;;;;25.10;5.23;;;10.90;99.90;;;;;;473135;252;28059;-84
2023/05/12 01:47:28;;;;;;;5.50;4.97;;;10.90;99.90;;;;;;475976;238;28229;-84
2023/05/12 02:23:35;;;;;;;8.37;6.30;;;;;;;;;;489946;235;28046;-80
2023/05/12 02:38:43;;;;;;;6.10;4.60;;;10.90;99.90;;;;;;485491;245;27981;-86
2023/05/12 02:40:44;;;;;;;6.00;5.30;;;10.90;99.90;;;;;;478658;245;28279;-85
2023/05/12 02:42:46;;;;;;;6.13;4.80;;;10.90;99.90;;;;;;457631;260;28024;-86
2023/05/12 02:49:51;;;;;;;8.40;5.90;;;10.90;99.90;;;;;;462292;251;28095;-85
2023/05/12 02:51:56;;;;;;;6.13;5.53;;;10.90;99.90;;;;;;462146;256;28282;-85
2023/05/12 02:54:01;;;;;;;6.27;4.77;;;11.00;99.90;;;;;;461735;258;27894;-85
2023/05/12 02:56:11;;;;;;;7.27;5.23;;;10.90;99.90;;;;;;462402;253;28379;-85
2023/05/12 02:58:15;;;;;;;6.40;5.50;;;10.90;99.90;;;;;;468190;241;28195;-80
2023/05/12 03:25:10;;;;;;;6.40;5.67;;;10.80;99.90;;;;;;481794;238;28216;-82
2023/05/12 03:27:11;;;;;;;7.80;6.30;;;10.80;99.90;;;;;;485637;236;28126;-81
2023/05/12 03:35:49;;;;;;;7.50;6.10;;;10.90;99.90;;;;;;482634;236;28025;-82
2023/05/12 03:37:51;;;;;;;8.70;6.43;;;10.80;99.90;;;;;;489130;235;27996;-81
2023/05/12 03:55:45;;;;;;;8.90;7.10;;;10.90;99.90;;;;;;468532;252;28050;-85
2023/05/12 04:20:55;;;;;;;12.03;7.60;;;11.00;99.90;;;;;;483798;234;28474;-82
2023/05/12 04:43:27;;;;;;;9.73;7.33;;;10.90;99.90;;;;;;477443;240;28097;-86
2023/05/12 04:45:28;;;;;;;8.07;6.90;;;11.00;99.90;;;;;;484242;246;28130;-86
2023/05/12 04:52:04;;;;;;;8.63;7.30;;;11.10;99.90;;;;;;478984;244;28064;-85
2023/05/12 04:56:31;;;;;;;7.67;5.87;;;11.00;99.90;;;;;;494043;231;28249;-80
2023/05/12 05:09:43;;;;;;;7.87;6.40;;;11.10;99.90;;;;;;474886;240;28180;-86
2023/05/12 05:14:22;;;;;;;7.63;6.07;;;11.00;99.90;;;;;;476896;250;28184;-85
2023/05/12 05:16:24;;;;;;;9.13;6.37;;;11.00;99.90;;;;;;474789;250;27930;-85
2023/05/12 05:21:03;;;;;;;5.20;4.70;;;11.10;99.90;;;;;;479171;249;28360;-86
2023/05/12 05:23:05;;;;;;;8.47;6.73;;;11.10;99.90;;;;;;477794;249;28132;-84
2023/05/12 05:30:08;;;;;;;6.40;5.60;;;11.20;99.90;;;;;;471567;248;28242;-86
2023/05/12 05:38:59;;;;;;;7.03;5.53;;;11.20;99.90;;;;;;483291;236;28417;-89
2023/05/12 05:45:15;;;;;;;5.47;4.00;;;11.20;99.90;;;;;;486485;244;28294;-86
2023/05/12 05:58:12;;;;;;;6.77;5.07;;;11.00;99.90;;;;;;494842;237;28379;-84
2023/05/12 06:06:46;;;;;;;5.80;5.10;;;11.10;99.90;;;;;;488299;235;28660;-86
2023/05/12 06:10:56;;;;;;;5.37;4.40;;;11.20;99.90;;;;;;475908;236;28330;-88
2023/05/12 06:23:41;;;;;;;4.07;3.77;;;12.00;99.90;;;;;;486973;236;28814;-85
2023/05/12 06:25:42;;;;;;;4.10;3.70;;;12.00;99.90;;;;;;486121;245;28401;-83
2023/05/12 06:36:05;;;;;;;5.10;4.30;;;12.40;99.90;;;;;;484321;235;28448;-80
2023/05/12 06:38:07;;;;;;;5.60;4.40;;;12.20;99.90;;;;;;480326;241;28910;-85
2023/05/12 06:40:08;;;;;;;4.60;4.20;;;12.30;99.90;;;;;;484933;235;29726;-82
2023/05/12 07:01:22;;;;;;;4.77;4.33;;;12.40;99.90;;;;;;482583;236;28230;-82
2023/05/12 07:03:23;;;;;;;4.17;3.87;;;12.10;99.90;;;;;;463445;249;28302;-82
2023/05/12 07:05:24;;;;;;;4.27;3.87;;;12.10;99.90;;;;;;468191;248;28299;-83
2023/05/12 07:09:35;;;;;;;4.70;4.27;;;12.30;99.90;;;;;;482630;237;29128;-82
2023/05/12 07:13:40;;;;;;;4.30;3.93;;;12.20;99.90;;;;;;477339;241;28134;-81
2023/05/12 07:22:04;;;;;;;3.27;2.97;;;13.50;99.90;;;;;;477724;249;28316;-88
2023/05/12 07:24:05;;;;;;;3.30;3.00;;;13.60;99.90;;;;;;494171;240;28802;-81
2023/05/12 07:26:06;;;;;;;3.53;3.23;;;13.50;99.90;;;;;;483439;246;28923;-84
2023/05/12 07:28:08;;;;;;;3.53;3.23;;;13.60;99.90;;;;;;483391;246;28221;-82
2023/05/12 07:30:09;;;;;;;3.40;3.10;;;13.70;99.90;;;;;;483419;246;28486;-84
2023/05/12 07:32:11;;;;;;;3.77;3.47;;;13.60;99.90;;;;;;483417;239;28773;-85
2023/05/12 07:34:11;;;;;;;4.03;3.10;;;13.80;99.90;;;;;;492359;235;28329;-81
2023/05/12 07:36:13;;;;;;;3.60;3.30;;;13.90;99.90;;;;;;506390;235;28486;-83
2023/05/12 07:38:14;;;;;;;4.43;3.90;;;13.90;99.90;;;;;;506322;235;28834;-86
2023/05/12 07:40:15;;;;;;;3.73;3.43;;;13.90;99.90;;;;;;506277;235;28514;-85
2023/05/12 07:44:20;;;;;;;3.87;3.57;;;13.90;99.90;;;;;;480864;247;28458;-85
2023/05/12 07:46:21;;;;;;;4.13;3.83;;;13.70;99.90;;;;;;480474;247;29294;-85
2023/05/12 07:48:22;;;;;;;3.70;3.40;;;13.60;99.90;;;;;;483201;244;28958;-86
2023/05/12 07:50:23;;;;;;;3.77;3.47;;;13.50;99.90;;;;;;484048;245;29740;-85
2023/05/12 07:52:25;;;;;;;3.70;3.40;;;13.40;99.90;;;;;;485582;240;28950;-84
2023/05/12 07:54:26;;;;;;;4.90;3.73;;;13.40;99.90;;;;;;496375;237;28842;-82
2023/05/12 07:56:27;;;;;;;4.33;3.50;;;13.30;99.90;;;;;;489338;243;29178;-82
2023/05/12 07:58:28;;;;;;;5.17;4.67;;;13.20;99.90;;;;;;496435;240;28883;-83
2023/05/12 08:00:30;;;;;;;5.23;4.73;;;12.90;99.90;;;;;;489313;243;28542;-81
2023/05/12 08:02:31;;;;;;;5.00;4.50;;;12.60;99.90;;;;;;496449;237;28601;-83
2023/05/12 08:06:37;;;;;;;6.77;6.07;;;12.40;99.90;;;;;;477095;235;28284;-82
2023/05/12 08:08:39;;;;;;;8.07;6.90;;;12.30;99.90;;;;;;487006;236;28253;-82
2023/05/12 08:12:45;;;;;;;9.73;7.90;;;12.10;99.90;;;;;;473756;250;26636;-85
2023/05/12 08:16:56;;;;;;;13.87;8.87;;;11.90;99.90;;;;;;471750;253;28276;-86
2023/05/12 08:21:00;;;;;;;11.40;8.73;;;11.80;99.90;;;;;;479578;239;27146;-83
2023/05/12 08:23:01;;;;;;;10.67;8.43;;;11.80;99.90;;;;;;476651;235;28840;-83
2023/05/12 08:31:42;;;;;;;11.10;8.60;;;12.30;99.90;;;;;;480277;243;28561;-83
2023/05/12 08:35:53;;;;;;;10.23;8.20;;;12.70;99.90;;;;;;481245;235;28224;-84
2023/05/12 08:37:54;;;;;;;11.23;8.63;;;12.70;99.90;;;;;;477023;246;28114;-84
2023/05/12 08:39:56;;;;;;;10.63;7.70;;;12.60;99.90;;;;;;480033;240;28475;-83
2023/05/12 08:41:57;;;;;;;9.30;7.80;;;12.60;99.90;;;;;;494830;240;28303;-83
2023/05/12 08:43:58;;;;;;;8.00;7.00;;;12.90;99.90;;;;;;494861;241;28818;-85
2023/05/12 08:46:01;;;;;;;8.50;7.10;;;13.10;99.90;;;;;;494796;241;29009;-85
2023/05/12 08:48:01;;;;;;;9.07;7.60;;;13.20;99.90;;;;;;494651;240;28798;-85
2023/05/12 08:50:02;;;;;;;9.13;6.93;;;13.10;99.90;;;;;;494632;241;28391;-86
2023/05/12 08:52:03;;;;;;;7.07;6.20;;;13.20;99.90;;;;;;494573;241;28417;-84
2023/05/12 08:54:05;;;;;;;7.40;6.23;;;13.70;99.90;;;;;;494466;241;28317;-85
2023/05/12 08:56:06;;;;;;;6.37;5.30;;;14.10;99.90;;;;;;494267;241;28393;-85
2023/05/12 08:58:07;;;;;;;7.47;6.07;;;14.40;99.90;;;;;;494740;241;28421;-87
2023/05/12 09:00:08;;;;;;;6.50;5.80;;;14.00;99.90;;;;;;491576;236;28859;-85
2023/05/12 09:02:09;;;;;;;6.60;6.00;;;13.80;99.90;;;;;;485734;245;28770;-85
2023/05/12 09:04:12;;;;;;;6.23;5.63;;;13.60;99.90;;;;;;489595;236;29758;-85
2023/05/12 09:06:12;;;;;;;5.77;5.23;;;13.40;99.90;;;;;;486383;240;29272;-85
2023/05/12 09:08:13;;;;;;;6.87;5.90;;;13.40;99.90;;;;;;488009;240;29369;-84
2023/05/12 09:10:16;;;;;;;6.27;5.63;;;13.10;99.90;;;;;;490039;243;28844;-84
2023/05/12 09:12:16;;;;;;;5.60;5.00;;;13.00;99.90;;;;;;490020;243;28627;-83
2023/05/12 09:14:17;;;;;;;8.40;7.07;;;13.10;99.90;;;;;;490191;243;28839;-82
2023/05/12 09:16:18;;;;;;;6.97;6.10;;;13.00;99.90;;;;;;490164;243;28805;-85
2023/05/12 09:18:20;;;;;;;7.97;5.97;;;12.80;99.90;;;;;;490271;243;28587;-85
2023/05/12 09:20:21;;;;;;;7.60;5.80;;;12.70;99.90;;;;;;490155;243;28592;-84
2023/05/12 09:22:22;;;;;;;7.23;6.47;;;12.50;99.90;;;;;;480402;240;28613;-84
2023/05/12 09:24:23;;;;;;;7.50;6.70;;;12.50;99.90;;;;;;471138;249;28527;-83
2023/05/12 09:26:24;;;;;;;9.77;7.17;;;12.70;99.90;;;;;;471241;252;28257;-85
2023/05/12 09:28:26;;;;;;;7.33;6.13;;;12.80;99.90;;;;;;480734;238;28929;-84
2023/05/12 09:30:27;;;;;;;8.33;6.83;;;12.80;99.90;;;;;;475354;248;29049;-86
2023/05/12 09:32:28;;;;;;;8.10;6.40;;;12.60;99.90;;;;;;489697;243;28968;-86
2023/05/12 09:34:30;;;;;;;8.10;6.50;;;12.90;99.90;;;;;;479717;241;28409;-86
2023/05/12 09:36:31;;;;;;;8.23;6.13;;;13.20;99.90;;;;;;491570;242;28708;-85
2023/05/12 09:38:32;;;;;;;7.33;6.10;;;13.10;99.90;;;;;;483134;246;28556;-83
2023/05/12 09:40:34;;;;;;;7.80;6.07;;;13.10;99.90;;;;;;492548;240;28506;-87
2023/05/12 09:42:35;;;;;;;7.90;6.33;;;13.00;99.90;;;;;;485564;240;28831;-84
2023/05/12 09:44:36;;;;;;;7.37;6.30;;;12.80;99.90;;;;;;494054;241;28403;-83
2023/05/12 09:46:38;;;;;;;8.13;6.67;;;12.70;99.90;;;;;;485202;243;28484;-82
2023/05/12 09:48:38;;;;;;;8.00;6.43;;;12.70;99.90;;;;;;490007;236;28587;-83
2023/05/12 09:50:40;;;;;;;8.90;7.10;;;12.80;99.90;;;;;;479870;242;28519;-84
2023/05/12 09:52:41;;;;;;;6.93;6.07;;;12.80;99.90;;;;;;473905;251;29143;-83
2023/05/12 09:54:42;;;;;;;7.63;6.63;;;12.70;99.90;;;;;;473655;250;29090;-84
2023/05/12 09:56:43;;;;;;;7.90;6.73;;;12.90;99.90;;;;;;484614;240;28316;-86
2023/05/12 09:58:45;;;;;;;6.90;6.20;;;12.90;99.90;;;;;;473972;240;28508;-83
2023/05/12 10:00:46;;;;;;;9.10;7.03;;;13.00;99.90;;;;;;478470;249;28885;-82
2023/05/12 10:02:47;;;;;;;7.83;6.90;;;12.90;99.90;;;;;;478432;249;28843;-83
2023/05/12 10:04:48;;;;;;;8.67;6.77;;;12.70;99.90;;;;;;466610;245;28930;-84
2023/05/12 10:06:50;;;;;;;8.57;6.43;;;12.90;99.90;;;;;;472796;252;28421;-82
2023/05/12 10:08:51;;;;;;;7.03;6.33;;;12.90;99.90;;;;;;472817;250;28837;-83
2023/05/12 10:10:52;;;;;;;7.70;6.90;;;13.00;99.90;;;;;;472814;252;28848;-83
2023/05/12 10:12:54;;;;;;;7.07;6.37;;;13.00;99.90;;;;;;472718;252;28141;-84
2023/05/12 10:14:55;;;;;;;7.33;6.23;;;13.00;99.90;;;;;;472703;252;28477;-83
2023/05/12 10:16:56;;;;;;;6.17;5.67;;;13.20;99.90;;;;;;472495;252;28395;-86
2023/05/12 10:19:15;;;;;;;5.80;5.30;;;13.40;99.90;;;;;;472437;251;28286;-84
2023/05/12 10:23:06;;;;;;;4.57;4.17;;;14.00;99.90;;;;;;475235;236;29501;-84
2023/05/12 10:25:10;;;;;;;6.00;4.80;;;14.10;99.90;;;;;;484158;238;29535;-84
2023/05/12 10:27:11;;;;;;;4.03;3.73;;;14.10;99.90;;;;;;469309;248;28891;-84
2023/05/12 10:29:12;;;;;;;3.93;3.60;;;14.00;99.90;;;;;;469313;253;28864;-85
2023/05/12 10:31:14;;;;;;;6.00;4.30;;;14.40;99.90;;;;;;469146;253;28871;-84
2023/05/12 10:33:15;;;;;;;3.60;3.30;;;15.20;99.90;;;;;;469013;253;29364;-85
2023/05/12 10:35:17;;;;;;;4.60;3.30;;;15.80;99.90;;;;;;468924;254;29256;-86
2023/05/12 10:37:17;;;;;;;3.97;3.67;;;15.60;99.90;;;;;;468910;253;29334;-87
2023/05/12 10:39:19;;;;;;;3.73;3.43;;;15.00;99.90;;;;;;469082;253;29240;-85
2023/05/12 10:41:21;;;;;;;5.90;5.10;;;14.90;99.90;;;;;;469110;253;28858;-86
2023/05/12 10:43:21;;;;;;;10.10;9.10;;;14.60;99.90;;;;;;469121;253;28894;-83
2023/05/12 10:45:22;;;;;;;6.37;5.67;;;14.40;99.90;;;;;;469105;248;28957;-83
2023/05/12 10:47:25;;;;;;;5.47;4.30;;;14.00;99.90;;;;;;469004;249;28935;-84
2023/05/12 10:49:25;;;;;;;4.83;4.10;;;14.00;99.90;;;;;;469029;249;28849;-83
2023/05/12 10:51:27;;;;;;;4.90;4.00;;;14.10;99.90;;;;;;469211;248;28799;-84
2023/05/12 10:53:27;;;;;;;5.00;4.50;;;13.80;99.90;;;;;;479201;236;28945;-84
2023/05/12 10:55:29;;;;;;;4.60;4.30;;;13.50;99.90;;;;;;479653;235;28826;-84
2023/05/12 10:57:30;;;;;;;4.47;4.00;;;13.30;99.90;;;;;;479233;247;29759;-82
2023/05/12 10:59:31;;;;;;;4.83;4.30;;;13.10;99.90;;;;;;479423;245;30088;-83
2023/05/12 11:01:32;;;;;;;5.67;5.17;;;13.00;99.90;;;;;;479394;248;29353;-85
2023/05/12 11:03:34;;;;;;;5.77;5.17;;;13.00;99.90;;;;;;479291;247;28794;-84
2023/05/12 11:05:35;;;;;;;6.17;5.47;;;13.00;99.90;;;;;;484196;236;28913;-82
2023/05/12 11:07:36;;;;;;;5.10;4.60;;;13.00;99.90;;;;;;485392;240;28514;-83
2023/05/12 11:09:37;;;;;;;5.87;5.10;;;13.00;99.90;;;;;;485316;245;28450;-85
2023/05/12 11:11:39;;;;;;;6.13;4.60;;;12.90;99.90;;;;;;485368;245;28384;-84
2023/05/12 11:22:15;;;;;;;7.20;5.70;;;12.80;99.90;;;;;;487697;238;28306;-84
2023/05/12 11:24:16;;;;;;;5.70;5.00;;;12.90;99.90;;;;;;480204;241;28348;-83
2023/05/12 11:28:24;;;;;;;6.37;5.27;;;12.90;99.90;;;;;;483851;235;28300;-84
2023/05/12 11:30:25;;;;;;;6.33;5.73;;;13.00;99.90;;;;;;473235;241;28339;-84
2023/05/12 11:32:26;;;;;;;5.90;5.10;;;13.00;99.90;;;;;;469493;253;28181;-83
2023/05/12 11:34:27;;;;;;;6.23;5.63;;;13.00;99.90;;;;;;469290;254;28620;-84
2023/05/12 11:36:29;;;;;;;6.33;5.73;;;13.00;99.90;;;;;;472227;244;28512;-87
2023/05/12 11:38:30;;;;;;;6.10;5.50;;;12.90;99.90;;;;;;470310;239;29605;-83
2023/05/12 11:40:31;;;;;;;6.67;5.97;;;12.90;99.90;;;;;;489117;235;28518;-83
2023/05/12 11:42:32;;;;;;;5.90;5.40;;;12.90;99.90;;;;;;489447;243;28449;-82
2023/05/12 11:44:34;;;;;;;6.10;5.60;;;12.80;99.90;;;;;;489608;238;28414;-82
2023/05/12 11:46:35;;;;;;;6.47;5.87;;;12.70;99.90;;;;;;489562;243;28465;-82
2023/05/12 11:50:40;;;;;;;9.03;8.00;;;12.70;99.90;;;;;;483808;240;28220;-83
2023/05/12 11:54:49;;;;;;;12.30;8.40;;;12.40;99.90;;;;;;480385;235;28801;-82
2023/05/12 12:01:04;;;;;;;11.60;9.10;;;12.40;99.90;;;;;;482058;245;26990;-84
2023/05/12 12:03:05;;;;;;;19.40;10.83;;;12.30;99.90;;;;;;480581;236;29460;-83
2023/05/12 12:05:06;;;;;;;11.33;10.23;;;12.20;99.90;;;;;;477291;240;28295;-82
2023/05/12 12:13:37;;;;;;;13.10;11.43;;;12.30;99.90;;;;;;483418;236;28093;-81
2023/05/12 12:15:38;;;;;;;16.23;12.73;;;12.20;99.90;;;;;;476355;241;28186;-85
2023/05/12 12:17:39;;;;;;;13.83;11.20;;;12.30;99.90;;;;;;476332;246;28494;-83
2023/05/12 12:21:43;;;;;;;11.30;10.13;;;12.30;99.90;;;;;;486021;236;28405;-83
2023/05/12 12:26:00;;;;;;;12.83;9.83;;;12.40;99.90;;;;;;462018;249;28893;-83
2023/05/12 12:28:02;;;;;;;11.97;9.70;;;12.50;99.90;;;;;;484269;235;28910;-84
2023/05/12 12:30:03;;;;;;;8.93;8.03;;;12.50;99.90;;;;;;484896;242;28127;-84
2023/05/12 12:32:04;;;;;;;10.20;9.20;;;12.70;99.90;;;;;;484930;242;28396;-82
2023/05/12 12:34:06;;;;;;;11.97;10.27;;;12.80;99.90;;;;;;484990;242;28368;-83
2023/05/12 12:36:07;;;;;;;12.20;11.00;;;12.80;99.90;;;;;;484772;242;28126;-84
2023/05/12 12:38:08;;;;;;;10.80;8.87;;;12.90;99.90;;;;;;484859;242;28326;-83
2023/05/12 12:40:10;;;;;;;13.00;10.30;;;13.00;99.90;;;;;;487842;236;28333;-83
2023/05/12 12:42:10;;;;;;;10.63;9.00;;;12.90;99.90;;;;;;489085;243;28989;-84
2023/05/12 12:44:12;;;;;;;14.23;9.90;;;13.00;99.90;;;;;;488900;244;29727;-83
2023/05/12 12:46:13;;;;;;;9.80;8.80;;;13.10;99.90;;;;;;479982;245;28296;-82
2023/05/12 12:48:14;;;;;;;8.67;7.77;;;13.20;99.90;;;;;;488880;242;28576;-82
2023/05/12 12:50:15;;;;;;;9.77;8.77;;;13.40;99.90;;;;;;488728;244;28865;-86
2023/05/12 12:54:27;;;;;;;12.50;9.47;;;13.90;99.90;;;;;;470730;253;28527;-83
2023/05/12 12:56:27;;;;;;;8.47;7.57;;;13.90;99.90;;;;;;470613;253;28860;-83
2023/05/12 12:58:29;;;;;;;12.70;9.80;;;14.10;99.90;;;;;;470552;253;29396;-85
2023/05/12 13:00:30;;;;;;;11.20;10.00;;;13.80;99.90;;;;;;470633;253;28852;-86
2023/05/12 13:02:31;;;;;;;10.57;9.33;;;13.90;99.90;;;;;;470484;253;28811;-84
2023/05/12 13:04:32;;;;;;;9.87;8.87;;;13.90;99.90;;;;;;470612;253;28900;-85
2023/05/12 13:06:33;;;;;;;9.00;8.10;;;14.30;99.90;;;;;;470602;253;28796;-85
2023/05/12 13:08:35;;;;;;;8.93;8.13;;;14.30;99.90;;;;;;474106;241;28924;-89
2023/05/12 13:10:37;;;;;;;11.47;8.23;;;14.20;99.90;;;;;;478226;238;28907;-87
2023/05/12 13:14:40;;;;;;;8.97;7.70;;;14.00;99.90;;;;;;479177;248;29325;-89
2023/05/12 13:18:48;;;;;;;9.40;7.93;;;13.50;99.90;;;;;;470962;253;28878;-84
2023/05/12 13:20:49;;;;;;;9.97;8.97;;;13.60;99.90;;;;;;479018;249;28799;-84
2023/05/12 13:22:50;;;;;;;11.20;8.10;;;13.20;99.90;;;;;;478819;249;29543;-86
2023/05/12 13:24:51;;;;;;;8.83;7.30;;;12.90;99.90;;;;;;478065;240;29488;-87
2023/05/12 13:26:53;;;;;;;12.50;11.20;;;13.00;99.90;;;;;;476690;249;28951;-86
2023/05/12 13:28:54;;;;;;;10.17;8.50;;;13.20;99.90;;;;;;482101;238;28251;-85
2023/05/12 13:30:55;;;;;;;7.80;7.00;;;13.50;99.90;;;;;;488288;243;28600;-85
2023/05/12 13:32:56;;;;;;;8.53;7.73;;;13.50;99.90;;;;;;488164;244;28802;-86
2023/05/12 13:34:58;;;;;;;10.13;9.13;;;13.50;99.90;;;;;;488118;243;28802;-84
2023/05/12 13:36:59;;;;;;;9.50;7.80;;;13.50;99.90;;;;;;488126;244;28513;-85
2023/05/12 13:39:01;;;;;;;10.00;8.00;;;13.80;99.90;;;;;;488174;243;28372;-87
2023/05/12 13:43:14;;;;;;;8.07;7.27;;;13.90;99.90;;;;;;488553;235;30143;-85
2023/05/12 13:49:29;;;;;;;8.73;7.83;;;14.10;99.90;;;;;;488814;236;28823;-84
2023/05/12 13:51:31;;;;;;;8.37;7.57;;;13.90;99.90;;;;;;498417;239;29626;-85
2023/05/12 13:53:31;;;;;;;9.30;7.27;;;14.00;99.90;;;;;;498601;236;29376;-83
2023/05/12 14:01:53;;;;;;;8.50;7.70;;;13.80;99.90;;;;;;472742;241;28979;-84
2023/05/12 14:03:54;;;;;;;8.30;7.50;;;13.80;99.90;;;;;;470495;253;28986;-85
2023/05/12 14:05:55;;;;;;;7.63;6.87;;;13.90;99.90;;;;;;492206;240;28803;-85
2023/05/12 14:07:57;;;;;;;7.30;6.60;;;13.70;99.90;;;;;;497103;238;28847;-84
2023/05/12 14:09:59;;;;;;;8.00;7.20;;;13.70;99.90;;;;;;497161;240;28964;-84
2023/05/12 14:11:59;;;;;;;7.43;6.63;;;13.80;99.90;;;;;;497074;240;29239;-84
2023/05/12 14:14:02;;;;;;;8.90;7.50;;;13.90;99.90;;;;;;497121;240;28856;-82
2023/05/12 14:16:02;;;;;;;9.30;7.70;;;14.00;99.90;;;;;;496913;240;28704;-87
2023/05/12 14:18:03;;;;;;;8.90;5.90;;;14.00;99.90;;;;;;496978;240;28759;-84
2023/05/12 14:20:05;;;;;;;6.90;6.03;;;14.20;99.90;;;;;;497040;240;28766;-85
2023/05/12 14:22:05;;;;;;;7.70;7.00;;;14.20;99.90;;;;;;496963;240;28702;-87
2023/05/12 14:24:07;;;;;;;13.03;7.40;;;14.50;99.90;;;;;;496899;240;28898;-82
2023/05/12 14:26:08;;;;;;;8.50;7.70;;;14.20;99.90;;;;;;491896;237;28852;-85
2023/05/12 14:30:15;;;;;;;7.80;7.00;;;13.90;99.90;;;;;;484716;233;28871;-85
2023/05/12 14:32:17;;;;;;;9.60;8.60;;;14.00;99.90;;;;;;479233;243;28900;-87
2023/05/12 14:34:18;;;;;;;7.90;7.00;;;14.10;99.90;;;;;;478909;243;28979;-87
2023/05/12 14:36:18;;;;;;;7.63;6.90;;;14.40;99.90;;;;;;479000;243;28882;-88
2023/05/12 14:38:19;;;;;;;8.07;6.00;;;14.50;99.90;;;;;;483757;243;28960;-87
2023/05/12 14:40:21;;;;;;;12.80;8.47;;;14.50;99.90;;;;;;486090;245;29624;-87
2023/05/12 14:42:22;;;;;;;8.30;6.97;;;14.40;99.90;;;;;;486100;245;29599;-86
2023/05/12 14:44:23;;;;;;;8.50;7.60;;;14.10;99.90;;;;;;485996;244;29574;-87
2023/05/12 14:46:24;;;;;;;9.93;7.57;;;14.10;99.90;;;;;;486044;245;28867;-86
2023/05/12 14:48:26;;;;;;;12.03;8.43;;;13.80;99.90;;;;;;486077;241;28860;-86
2023/05/12 14:50:27;;;;;;;10.90;7.90;;;13.60;99.90;;;;;;486090;244;28880;-87
2023/05/12 14:52:28;;;;;;;7.70;6.80;;;13.60;99.90;;;;;;486042;244;28886;-86
2023/05/12 14:54:29;;;;;;;9.57;8.67;;;13.50;99.90;;;;;;486763;240;28921;-84
2023/05/12 14:56:32;;;;;;;11.70;9.43;;;13.60;99.90;;;;;;490135;243;28795;-86
2023/05/12 14:58:32;;;;;;;10.13;9.03;;;13.50;99.90;;;;;;489855;243;28531;-84
2023/05/12 15:00:34;;;;;;;13.27;10.70;;;13.30;99.90;;;;;;490076;243;28520;-84
2023/05/12 15:02:34;;;;;;;12.10;10.10;;;13.30;99.90;;;;;;489944;236;28392;-84
2023/05/12 15:04:36;;;;;;;8.77;7.90;;;13.10;99.90;;;;;;490424;234;28138;-85
2023/05/12 15:06:37;;;;;;;11.50;8.23;;;12.90;99.90;;;;;;495696;239;28499;-84
2023/05/12 15:08:38;;;;;;;9.67;8.80;;;13.00;99.90;;;;;;495694;239;28625;-84
2023/05/12 15:10:39;;;;;;;8.50;7.70;;;13.10;99.90;;;;;;495730;239;29178;-84
2023/05/12 15:12:41;;;;;;;9.53;8.40;;;13.30;99.90;;;;;;495575;239;28337;-86
2023/05/12 15:14:42;;;;;;;8.30;7.50;;;13.40;99.90;;;;;;495403;239;28480;-86
2023/05/12 15:16:43;;;;;;;13.10;8.70;;;13.40;99.90;;;;;;495491;239;28907;-83
2023/05/12 15:18:44;;;;;;;9.23;8.07;;;13.50;99.90;;;;;;495514;239;28773;-83
2023/05/12 15:20:46;;;;;;;7.10;6.43;;;13.50;99.90;;;;;;495364;239;28810;-83
2023/05/12 15:22:47;;;;;;;7.77;6.97;;;13.70;99.90;;;;;;495415;239;28780;-86
2023/05/12 15:24:52;;;;;;;6.73;6.13;;;13.80;99.90;;;;;;474956;239;28602;-84
2023/05/12 15:26:50;;;;;;;7.07;6.47;;;13.90;99.90;;;;;;473238;251;28844;-85
2023/05/12 15:28:51;;;;;;;8.73;6.27;;;13.90;99.90;;;;;;473575;247;28585;-85
2023/05/12 15:30:53;;;;;;;5.80;5.20;;;13.70;99.90;;;;;;473600;251;29317;-85
2023/05/12 15:32:54;;;;;;;10.70;6.73;;;13.90;99.90;;;;;;473503;248;29476;-86
2023/05/12 15:34:57;;;;;;;6.50;5.90;;;14.20;99.90;;;;;;473395;251;29412;-85
2023/05/12 15:36:57;;;;;;;7.43;6.40;;;14.10;99.90;;;;;;473339;251;28798;-83
2023/05/12 15:41:00;;;;;;;6.67;6.03;;;14.00;99.90;;;;;;490637;236;28819;-85
2023/05/12 15:43:01;;;;;;;6.80;5.63;;;14.10;99.90;;;;;;501033;237;28738;-86
2023/05/12 15:45:03;;;;;;;8.00;7.30;;;14.10;99.90;;;;;;485998;237;28865;-85
2023/05/12 15:49:13;;;;;;;8.00;7.20;;;13.70;99.90;;;;;;500255;232;29161;-81
2023/05/12 15:55:32;;;;;;;8.00;7.20;;;13.20;99.90;;;;;;481353;240;28513;-81
2023/05/12 15:59:44;;;;;;;9.20;7.60;;;13.30;99.90;;;;;;477362;241;28552;-85
2023/05/12 16:01:45;;;;;;;9.00;7.47;;;13.30;99.90;;;;;;478250;240;29263;-82
2023/05/12 16:18:53;;;;;;;5.77;5.23;;;13.50;99.90;;;;;;485331;232;28210;-83
2023/05/12 16:20:55;;;;;;;10.30;8.50;;;13.70;99.90;;;;;;488413;242;28344;-83
2023/05/12 16:22:56;;;;;;;12.00;8.70;;;13.90;99.90;;;;;;488435;240;28324;-83
2023/05/12 16:24:57;;;;;;;8.57;7.50;;;13.90;99.90;;;;;;479535;244;29109;-82
2023/05/12 16:26:59;;;;;;;7.30;6.60;;;14.20;99.90;;;;;;478741;245;29360;-85
2023/05/12 16:29:00;;;;;;;14.43;8.20;;;14.50;99.90;;;;;;478739;249;28866;-84
2023/05/12 16:31:02;;;;;;;8.57;7.67;;;14.50;99.90;;;;;;478601;248;29038;-84
2023/05/12 16:33:02;;;;;;;9.27;8.10;;;14.30;99.90;;;;;;478754;249;28886;-82
2023/05/12 16:37:13;;;;;;;8.30;7.00;;;13.70;99.90;;;;;;476131;240;28473;-82
2023/05/12 16:39:14;;;;;;;8.93;8.03;;;13.50;99.90;;;;;;470152;248;29168;-82
2023/05/12 16:41:15;;;;;;;10.20;8.23;;;13.50;99.90;;;;;;478708;246;29703;-81
2023/05/12 16:43:16;;;;;;;12.07;8.37;;;13.50;99.90;;;;;;479175;247;29585;-81
2023/05/12 16:45:18;;;;;;;8.70;7.80;;;13.40;99.90;;;;;;474988;236;28576;-83
2023/05/12 16:56:09;;;;;;;11.57;9.33;;;13.30;99.90;;;;;;478215;242;28827;-82
2023/05/12 16:58:10;;;;;;;12.37;8.93;;;13.30;99.90;;;;;;474452;240;28376;-85
2023/05/12 17:04:32;;;;;;;11.73;9.07;;;13.20;99.90;;;;;;476982;239;28401;-83
2023/05/12 17:06:33;;;;;;;9.40;8.40;;;13.10;99.90;;;;;;471750;246;28188;-82
2023/05/12 17:08:35;;;;;;;9.83;7.40;;;13.00;99.90;;;;;;482542;236;28481;-82
2023/05/12 17:14:59;;;;;;;13.30;9.83;;;12.90;99.90;;;;;;474620;233;28456;-82
2023/05/12 17:17:01;;;;;;;12.07;9.80;;;13.00;99.90;;;;;;472905;238;28372;-83
2023/05/12 17:19:02;;;;;;;10.57;9.47;;;13.00;99.90;;;;;;481704;240;28888;-83
2023/05/12 17:23:11;;;;;;;12.30;9.57;;;13.00;99.90;;;;;;483782;235;26560;-80
2023/05/12 17:25:13;;;;;;;11.50;8.37;;;13.00;99.90;;;;;;486246;236;28377;-80
2023/05/12 17:37:48;;;;;;;10.93;6.40;;;13.10;99.90;;;;;;475794;239;28200;-88
2023/05/12 17:39:50;;;;;;;7.23;6.33;;;13.10;99.90;;;;;;480162;237;28384;-81
2023/05/12 17:41:51;;;;;;;6.00;5.10;;;13.20;99.90;;;;;;488362;238;28383;-82
2023/05/12 17:43:52;;;;;;;6.87;5.30;;;13.10;99.90;;;;;;475288;239;28422;-84
2023/05/12 17:45:53;;;;;;;5.40;4.90;;;13.00;99.90;;;;;;469734;235;28320;-82
2023/05/12 17:54:15;;;;;;;4.57;4.17;;;13.10;99.90;;;;;;471453;253;26451;-85
2023/05/12 18:09:17;;;;;;;4.87;3.43;;;12.80;99.90;;;;;;483966;234;29369;-82
2023/05/12 18:11:18;;;;;;;3.60;3.30;;;12.70;99.90;;;;;;486410;234;28362;-82
2023/05/12 18:17:47;;;;;;;4.80;3.20;;;12.70;99.90;;;;;;484967;238;28087;-86
2023/05/12 18:32:42;;;;;;;2.30;2.20;;;12.40;99.90;;;;;;490501;236;28718;-82
2023/05/12 18:41:20;;;;;;;2.10;2.00;;;12.20;99.90;;;;;;483392;239;28591;-82
2023/05/12 18:43:21;;;;;;;2.57;2.03;;;12.10;99.90;;;;;;484189;239;28343;-80